Martha — WCY6838 — position and weather

sailwx.info

Track history (hours):
 
Tides and Currents Weather Stations Pressure Air Temp Water Temp Dewpoint Dewpoint Depression Visibility Wind Speed Wind Dir Waves Ship Positions

Martha

Owner: SCHOONER MARTHA FOUNDATION, SEATTLE, WA. More information available from US FCC via Universal Licensing System and Coast Guard Vessel Documentation Center.

Last reported at 2017-Nov-14 16:13 UTC. Time now 2017-Dec-13 22:45 UTC.
Position N 48°26' W 122°42'.
Warning: this ship's position is 29 days out of date.

Length 27 m.

Type: Pleasure craft. MMSI: 367375650.

Date/timePositionNaut miles runAvg speedWind from/ knotsBaromVisibWave heightAir tempDewpointWater temp
2017-Nov-14 16:13N 48°26' W 122°42'2 4.4
2017-Nov-14 15:49N 48°27' W 122°45'1 2.8
2017-Nov-14 15:29N 48°28' W 122°45'2 4.6
2017-Nov-14 15:00N 48°29' W 122°48'11 0.3
2017-Nov-13 01:43N 48°38' W 122°58'4 5.8
2017-Nov-13 01:02N 48°35' W 122°54'0 8.4
2017-Nov-13 01:00N 48°35' W 122°53'4 6.4
2017-Nov-13 00:25N 48°36' W 122°48'2 3.4
2017-Nov-12 23:54N 48°34' W 122°46'2 5.8
2017-Nov-12 23:30N 48°32' W 122°45'3 7.0
2017-Nov-12 23:00N 48°29' W 122°46'4 7.2
2017-Nov-12 22:24N 48°25' W 122°49'2 4.3
2017-Nov-12 21:51N 48°24' W 122°52'1 2.0
2017-Nov-12 21:29N 48°24' W 122°53'2 4.1
2017-Nov-12 21:00N 48°25' W 122°56'3 5.0
2017-Nov-12 20:28N 48°26' W 122°59'2 3.6
2017-Nov-12 19:59N 48°27' W 123°02'4 7.2
2017-Nov-12 19:29N 48°26' W 123°07'2 4.5
2017-Nov-12 19:00N 48°28' W 123°07'4 5.0
2017-Nov-12 18:16N 48°26' W 123°12'2 4.4
2017-Nov-12 17:48N 48°27' W 123°13'2 7.4
2017-Nov-12 17:30N 48°29' W 123°13'4 7.4
2017-Nov-12 16:59N 48°33' W 123°12'1 3.0
2017-Nov-12 16:29N 48°35' W 123°11'19 0.8
2017-Nov-11 18:03N 48°42' W 122°44'1 6.6
2017-Nov-11 17:58N 48°41' W 122°44'2 3.9
2017-Nov-11 17:24N 48°39' W 122°44'2 3.7
2017-Nov-11 16:59N 48°37' W 122°44'1 2.4
2017-Nov-11 16:25N 48°36' W 122°46'1 1.6
2017-Nov-11 16:00N 48°36' W 122°46'1 1.3
2017-Nov-11 15:30N 48°36' W 122°47'3 6.8
2017-Nov-11 15:00N 48°35' W 122°52'4 5.8
2017-Nov-11 14:24N 48°36' W 122°57'1 3.6
2017-Nov-11 13:59N 48°38' W 122°58'0 0.0
2017-Nov-11 04:29N 48°38' W 122°58'0 0.0
2017-Nov-11 03:59N 48°38' W 122°58'0 0.0
2017-Nov-11 03:11N 48°38' W 122°58'0 0.0
2017-Nov-11 02:59N 48°38' W 122°58'0 0.0
2017-Nov-11 02:20N 48°38' W 122°58'0 0.0
2017-Nov-11 01:50N 48°38' W 122°58'0 0.0
2017-Nov-11 01:29N 48°38' W 122°58'0 0.0
2017-Nov-11 00:59N 48°38' W 122°58'0 0.0
2017-Nov-11 00:14N 48°38' W 122°58'0 0.0
2017-Nov-10 23:53N 48°38' W 122°58'0 0.0
2017-Nov-10 22:20N 48°38' W 122°58'0 0.0
2017-Nov-10 21:53N 48°38' W 122°58'1 2.6
2017-Nov-10 21:28N 48°37' W 122°57'3 5.3
2017-Nov-10 20:58N 48°35' W 122°54'3 6.8
2017-Nov-10 20:30N 48°33' W 122°51'2 3.7
2017-Nov-10 19:58N 48°31' W 122°51'1 2.0
2017-Nov-10 19:25N 48°30' W 122°51'  
Track history (hours):
 
Tides and Currents Weather Stations Pressure Air Temp Water Temp Dewpoint Dewpoint Depression Visibility Wind Speed Wind Dir Waves Ship Positions

Martha

Owner: SCHOONER MARTHA FOUNDATION, SEATTLE, WA. More information available from US FCC via Universal Licensing System and Coast Guard Vessel Documentation Center.

Last reported at 2017-Nov-14 16:13 UTC. Time now 2017-Dec-13 22:45 UTC.
Position N 48°26' W 122°42'.
Warning: this ship's position is 29 days out of date.

Length 27 m.

Type: Pleasure craft. MMSI: 367375650.

Date/timePositionNaut miles runAvg speedWind from/ knotsBaromVisibWave heightAir tempDewpointWater temp
2017-Nov-14 16:13N 48°26' W 122°42'2 4.4
2017-Nov-14 15:49N 48°27' W 122°45'1 2.8
2017-Nov-14 15:29N 48°28' W 122°45'2 4.6
2017-Nov-14 15:00N 48°29' W 122°48'11 0.3
2017-Nov-13 01:43N 48°38' W 122°58'4 5.8
2017-Nov-13 01:02N 48°35' W 122°54'0 8.4
2017-Nov-13 01:00N 48°35' W 122°53'4 6.4
2017-Nov-13 00:25N 48°36' W 122°48'2 3.4
2017-Nov-12 23:54N 48°34' W 122°46'2 5.8
2017-Nov-12 23:30N 48°32' W 122°45'3 7.0
2017-Nov-12 23:00N 48°29' W 122°46'4 7.2
2017-Nov-12 22:24N 48°25' W 122°49'2 4.3
2017-Nov-12 21:51N 48°24' W 122°52'1 2.0
2017-Nov-12 21:29N 48°24' W 122°53'2 4.1
2017-Nov-12 21:00N 48°25' W 122°56'3 5.0
2017-Nov-12 20:28N 48°26' W 122°59'2 3.6
2017-Nov-12 19:59N 48°27' W 123°02'4 7.2
2017-Nov-12 19:29N 48°26' W 123°07'2 4.5
2017-Nov-12 19:00N 48°28' W 123°07'4 5.0
2017-Nov-12 18:16N 48°26' W 123°12'2 4.4
2017-Nov-12 17:48N 48°27' W 123°13'2 7.4
2017-Nov-12 17:30N 48°29' W 123°13'4 7.4
2017-Nov-12 16:59N 48°33' W 123°12'1 3.0
2017-Nov-12 16:29N 48°35' W 123°11'19 0.8
2017-Nov-11 18:03N 48°42' W 122°44'1 6.6
2017-Nov-11 17:58N 48°41' W 122°44'2 3.9
2017-Nov-11 17:24N 48°39' W 122°44'2 3.7
2017-Nov-11 16:59N 48°37' W 122°44'1 2.4
2017-Nov-11 16:25N 48°36' W 122°46'1 1.6
2017-Nov-11 16:00N 48°36' W 122°46'1 1.3
2017-Nov-11 15:30N 48°36' W 122°47'3 6.8
2017-Nov-11 15:00N 48°35' W 122°52'4 5.8
2017-Nov-11 14:24N 48°36' W 122°57'1 3.6
2017-Nov-11 13:59N 48°38' W 122°58'0 0.0
2017-Nov-11 04:29N 48°38' W 122°58'0 0.0
2017-Nov-11 03:59N 48°38' W 122°58'0 0.0
2017-Nov-11 03:11N 48°38' W 122°58'0 0.0
2017-Nov-11 02:59N 48°38' W 122°58'0 0.0
2017-Nov-11 02:20N 48°38' W 122°58'0 0.0
2017-Nov-11 01:50N 48°38' W 122°58'0 0.0
2017-Nov-11 01:29N 48°38' W 122°58'0 0.0
2017-Nov-11 00:59N 48°38' W 122°58'0 0.0
2017-Nov-11 00:14N 48°38' W 122°58'0 0.0
2017-Nov-10 23:53N 48°38' W 122°58'0 0.0
2017-Nov-10 22:20N 48°38' W 122°58'0 0.0
2017-Nov-10 21:53N 48°38' W 122°58'1 2.6
2017-Nov-10 21:28N 48°37' W 122°57'3 5.3
2017-Nov-10 20:58N 48°35' W 122°54'3 6.8
2017-Nov-10 20:30N 48°33' W 122°51'2 3.7
2017-Nov-10 19:58N 48°31' W 122°51'1 2.0
2017-Nov-10 19:25N 48°30' W 122°51'  

Dump ship's entire track history